Time;durP1;ratioP1;P1;durP2;ratioP2;P2;SDS_P1;SDS_P2;PMS_P1;PMS_P2;Temp;Humidity;BMP_temperature;BMP_pressure;BME280_temperature;BME280_humidity;BME280_pressure;Samples;Min_cycle;Max_cycle;Signal;HPM_P1;HPM_P2
2023/06/07 00:00:33;;;;;;;;;;;21.00;99.90;;;;;;4593357;19;19971;-25
2023/06/07 00:02:26;;;;;;;;;;;21.10;99.90;;;;;;4592857;19;19915;-27
2023/06/07 00:03:57;;;;;;;;;;;21.10;99.90;;;;;;4593271;19;19950;-28
2023/06/07 00:05:31;;;;;;;;;;;21.10;99.90;;;;;;4592163;19;19922;-25
2023/06/07 00:07:05;;;;;;;;;;;21.10;99.90;;;;;;4592559;19;19943;-27
2023/06/07 00:08:36;;;;;;;;;;;21.20;99.90;;;;;;4593935;19;19999;-28
2023/06/07 00:10:07;;;;;;;;;;;21.20;99.90;;;;;;4593656;19;19914;-25
2023/06/07 00:11:38;;;;;;;;;;;21.20;99.90;;;;;;4591960;19;19943;-27
2023/06/07 00:13:10;;;;;;;;;;;21.20;99.90;;;;;;4593750;19;19934;-24
2023/06/07 00:14:43;;;;;;;;;;;21.20;99.90;;;;;;4593405;19;20317;-27
2023/06/07 00:16:16;;;;;;;;;;;21.20;99.90;;;;;;4592910;19;19923;-24
2023/06/07 00:17:47;;;;;;;;;;;21.20;99.90;;;;;;4593217;19;19918;-27
2023/06/07 00:19:21;;;;;;;;;;;21.30;99.90;;;;;;4593565;19;19919;-27
2023/06/07 00:20:52;;;;;;;;;;;21.30;99.90;;;;;;4593594;19;19918;-25
2023/06/07 00:22:23;;;;;;;;;;;21.30;99.90;;;;;;4592515;19;19926;-25
2023/06/07 00:23:54;;;;;;;;;;;21.30;99.90;;;;;;4592775;19;20325;-24
2023/06/07 00:25:26;;;;;;;;;;;21.30;99.90;;;;;;4593113;19;19967;-24
2023/06/07 00:26:58;;;;;;;;;;;21.30;99.90;;;;;;4593394;19;19934;-24
2023/06/07 00:28:29;;;;;;;;;;;21.30;99.90;;;;;;4591613;19;19919;-24
2023/06/07 00:30:03;;;;;;;;;;;21.30;99.90;;;;;;4592394;19;20009;-29
2023/06/07 00:31:35;;;;;;;;;;;21.30;99.90;;;;;;4592901;19;20336;-27
2023/06/07 00:33:08;;;;;;;;;;;21.30;99.90;;;;;;4593553;19;20332;-25
2023/06/07 00:34:40;;;;;;;;;;;21.40;99.90;;;;;;4591540;19;19915;-23
2023/06/07 00:36:11;;;;;;;;;;;21.40;99.90;;;;;;4592495;19;19930;-27
2023/06/07 00:37:43;;;;;;;;;;;21.40;99.90;;;;;;4592943;19;19931;-25
2023/06/07 00:39:16;;;;;;;;;;;21.40;99.90;;;;;;4592822;19;19919;-24
2023/06/07 00:40:47;;;;;;;;;;;21.40;99.90;;;;;;4591418;19;20265;-28
2023/06/07 00:42:19;;;;;;;;;;;21.40;99.90;;;;;;4592007;19;20326;-25
2023/06/07 00:43:50;;;;;;;;;;;21.40;99.90;;;;;;4592749;19;19918;-25
2023/06/07 00:45:22;;;;;;;;;;;21.40;99.90;;;;;;4592779;19;19923;-27
2023/06/07 00:46:53;;;;;;;;;;;21.40;99.90;;;;;;4592581;19;19919;-25
2023/06/07 00:48:23;;;;;;;;;;;21.40;99.90;;;;;;4592988;19;19911;-28
2023/06/07 00:49:55;;;;;;;;;;;21.40;99.90;;;;;;4592969;19;19922;-27
2023/06/07 00:51:27;;;;;;;;;;;21.40;99.90;;;;;;4592300;19;19925;-25
2023/06/07 00:52:58;;;;;;;;;;;21.40;99.90;;;;;;4592449;19;19922;-24
2023/06/07 00:54:29;;;;;;;;;;;21.40;99.90;;;;;;4592479;19;19978;-25
2023/06/07 00:56:00;;;;;;;;;;;21.40;99.90;;;;;;4592226;19;19914;-24
2023/06/07 00:57:32;;;;;;;;;;;21.40;99.90;;;;;;4592047;19;20226;-26
2023/06/07 00:59:06;;;;;;;;;;;21.40;99.90;;;;;;4592019;19;19978;-24
2023/06/07 01:00:40;;;;;;;;;;;21.40;99.90;;;;;;4592340;19;19922;-25
2023/06/07 01:02:14;;;;;;;;;;;21.50;99.90;;;;;;4592940;19;19947;-26
2023/06/07 01:03:46;;;;;;;;;;;21.50;99.90;;;;;;4590999;19;19915;-24
2023/06/07 01:05:17;;;;;;;;;;;21.50;99.90;;;;;;4591625;19;19931;-24
2023/06/07 01:06:49;;;;;;;;;;;21.50;99.90;;;;;;4592059;19;19922;-28
2023/06/07 01:08:21;;;;;;;;;;;21.50;99.90;;;;;;4592407;19;19919;-24
2023/06/07 01:09:52;;;;;;;;;;;21.50;99.90;;;;;;4592095;19;19926;-30
2023/06/07 01:11:23;;;;;;;;;;;21.50;99.90;;;;;;4591380;19;19987;-27
2023/06/07 01:12:55;;;;;;;;;;;21.50;99.90;;;;;;4592803;19;20249;-29
2023/06/07 01:14:27;;;;;;;;;;;21.50;99.90;;;;;;4590574;19;19915;-29
2023/06/07 01:15:58;;;;;;;;;;;21.50;99.90;;;;;;4590833;19;19922;-28
2023/06/07 01:17:30;;;;;;;;;;;21.50;99.90;;;;;;4591700;19;20326;-25
2023/06/07 01:19:03;;;;;;;;;;;21.50;99.90;;;;;;4591077;19;20338;-24
2023/06/07 01:20:33;;;;;;;;;;;21.50;99.90;;;;;;4590552;19;19915;-26
2023/06/07 01:22:05;;;;;;;;;;;21.50;99.90;;;;;;4589769;19;19914;-25
2023/06/07 01:23:36;;;;;;;;;;;21.50;99.90;;;;;;4590498;19;19919;-24
2023/06/07 01:25:08;;;;;;;;;;;21.50;99.90;;;;;;4592207;19;19915;-24
2023/06/07 01:26:39;;;;;;;;;;;21.50;99.90;;;;;;4592005;19;20322;-25
2023/06/07 01:28:10;;;;;;;;;;;21.50;99.90;;;;;;4592034;19;19974;-26
2023/06/07 01:29:41;;;;;;;;;;;21.50;99.90;;;;;;4590913;19;19935;-26
2023/06/07 01:31:12;;;;;;;;;;;21.50;99.90;;;;;;4590468;19;20337;-24
2023/06/07 01:32:43;;;;;;;;;;;21.50;99.90;;;;;;4591225;19;19917;-25
2023/06/07 01:34:14;;;;;;;;;;;21.50;99.90;;;;;;4592082;19;20268;-25
2023/06/07 01:35:45;;;;;;;;;;;21.50;99.90;;;;;;4590633;19;19954;-24
2023/06/07 01:37:16;;;;;;;;;;;21.50;99.90;;;;;;4590150;19;19910;-29
2023/06/07 01:38:47;;;;;;;;;;;21.50;99.90;;;;;;4591190;19;19923;-25
2023/06/07 01:40:19;;;;;;;;;;;21.50;99.90;;;;;;4590281;19;20301;-27
2023/06/07 01:41:50;;;;;;;;;;;21.50;99.80;;;;;;4590601;19;19975;-26
2023/06/07 01:43:21;;;;;;;;;;;21.50;99.80;;;;;;4589230;19;19921;-25
2023/06/07 01:44:52;;;;;;;;;;;21.50;99.80;;;;;;4591291;19;20245;-25
2023/06/07 01:46:24;;;;;;;;;;;21.50;99.70;;;;;;4591854;19;19982;-24
2023/06/07 01:47:55;;;;;;;;;;;21.50;99.70;;;;;;4591437;19;20346;-25
2023/06/07 01:49:26;;;;;;;;;;;21.50;99.70;;;;;;4590001;19;19935;-24
2023/06/07 01:50:57;;;;;;;;;;;21.50;99.70;;;;;;4591277;19;19922;-24
2023/06/07 01:52:28;;;;;;;;;;;21.50;99.60;;;;;;4591369;19;19919;-25
2023/06/07 01:53:59;;;;;;;;;;;21.50;99.60;;;;;;4591006;19;20325;-27
2023/06/07 01:55:30;;;;;;;;;;;21.50;99.60;;;;;;4591230;19;19982;-25
2023/06/07 01:57:20;;;;;;;;;;;21.50;99.60;;;;;;4589185;19;19918;-29
2023/06/07 01:58:52;;;;;;;;;;;21.50;99.60;;;;;;4590436;19;19922;-24
2023/06/07 02:00:23;;;;;;;;;;;21.50;99.60;;;;;;4590540;19;19919;-23
2023/06/07 02:02:29;;;;;;;;;;;21.50;99.50;;;;;;4590890;19;19914;-30
2023/06/07 02:04:00;;;;;;;;;;;21.50;99.50;;;;;;4588947;19;20344;-25
2023/06/07 02:05:35;;;;;;;;;;;21.50;99.50;;;;;;4588990;19;19915;-22
2023/06/07 02:07:06;;;;;;;;;;;21.50;99.50;;;;;;4588817;19;19932;-25
2023/06/07 02:08:39;;;;;;;;;;;21.50;99.50;;;;;;4588588;19;19919;-23
2023/06/07 02:10:09;;;;;;;;;;;21.50;99.50;;;;;;4588559;19;20405;-24
2023/06/07 02:11:41;;;;;;;;;;;21.50;99.40;;;;;;4587790;19;19982;-25
2023/06/07 02:13:12;;;;;;;;;;;21.50;99.40;;;;;;4588873;19;19933;-24
2023/06/07 02:14:43;;;;;;;;;;;21.50;99.30;;;;;;4588606;19;19935;-26
2023/06/07 02:16:14;;;;;;;;;;;21.50;99.30;;;;;;4588783;19;19922;-24
2023/06/07 02:17:48;;;;;;;;;;;21.50;99.20;;;;;;4588879;19;19919;-31
2023/06/07 02:19:19;;;;;;;;;;;21.50;99.20;;;;;;4588680;19;20334;-24
2023/06/07 02:20:50;;;;;;;;;;;21.50;99.20;;;;;;4588477;19;20026;-24
2023/06/07 02:22:22;;;;;;;;;;;21.50;99.20;;;;;;4588255;19;19918;-24
2023/06/07 02:23:54;;;;;;;;;;;21.50;99.20;;;;;;4588879;19;19986;-26
2023/06/07 02:25:25;;;;;;;;;;;21.50;99.10;;;;;;4588313;19;19936;-23
2023/06/07 02:26:57;;;;;;;;;;;21.50;99.10;;;;;;4588566;19;19919;-25
2023/06/07 02:28:28;;;;;;;;;;;21.50;99.10;;;;;;4588304;19;19915;-25
2023/06/07 02:29:59;;;;;;;;;;;21.50;99.10;;;;;;4588840;19;19959;-24
2023/06/07 02:31:30;;;;;;;;;;;21.50;99.10;;;;;;4588209;19;20279;-25
2023/06/07 02:33:01;;;;;;;;;;;21.50;99.10;;;;;;4587929;19;19919;-23
2023/06/07 02:34:32;;;;;;;;;;;21.50;99.10;;;;;;4593529;19;20415;-27
2023/06/07 02:36:04;;;;;;;;;;;21.50;99.10;;;;;;4593460;19;19919;-24
2023/06/07 02:37:39;;;;;;;;;;;21.50;99.10;;;;;;4592969;19;19917;-28
2023/06/07 02:39:10;;;;;;;;;;;21.50;99.10;;;;;;4594976;19;19911;-26
2023/06/07 02:40:41;;;;;;;;;;;21.50;99.10;;;;;;4595027;19;20017;-24
2023/06/07 02:42:12;;;;;;;;;;;21.50;99.10;;;;;;4595654;19;19965;-24
2023/06/07 02:43:43;;;;;;;;;;;21.50;99.00;;;;;;4592287;19;19923;-28
2023/06/07 02:45:15;;;;;;;;;;;21.50;99.30;;;;;;4594301;19;19930;-28
2023/06/07 02:46:45;;;;;;;;;;;21.50;99.00;;;;;;4595586;19;19919;-27
2023/06/07 02:48:16;;;;;;;;;;;21.50;99.00;;;;;;4594788;19;19919;-27
2023/06/07 02:49:47;;;;;;;;;;;21.50;99.00;;;;;;4593749;19;19915;-23
2023/06/07 02:51:18;;;;;;;;;;;21.50;99.00;;;;;;4594663;19;20341;-25
2023/06/07 02:52:50;;;;;;;;;;;21.50;99.00;;;;;;4595430;19;19911;-25
2023/06/07 02:54:22;;;;;;;;;;;21.50;99.00;;;;;;4593739;19;20292;-27
2023/06/07 02:55:53;;;;;;;;;;;21.50;98.90;;;;;;4594009;19;19918;-25
2023/06/07 02:57:23;;;;;;;;;;;21.50;99.00;;;;;;4593837;19;19911;-27
2023/06/07 02:58:55;;;;;;;;;;;21.50;98.90;;;;;;4594403;19;19960;-25
2023/06/07 03:00:27;;;;;;;;;;;21.50;98.90;;;;;;4594447;19;19970;-30
2023/06/07 03:01:58;;;;;;;;;;;21.50;98.90;;;;;;4594687;19;19926;-23
2023/06/07 03:03:29;;;;;;;;;;;21.50;98.90;;;;;;4592774;19;19946;-25
2023/06/07 03:05:03;;;;;;;;;;;21.60;99.00;;;;;;4593352;19;19911;-24
2023/06/07 03:06:34;;;;;;;;;;;21.60;99.00;;;;;;4594292;19;19915;-27
2023/06/07 03:08:10;;;;;;;;;;;21.60;99.00;;;;;;4594796;19;19918;-24
2023/06/07 03:09:41;;;;;;;;;;;21.50;98.90;;;;;;4594862;19;19952;-30
2023/06/07 03:11:12;;;;;;;;;;;21.50;98.90;;;;;;4593851;19;20326;-24
2023/06/07 03:12:43;;;;;;;;;;;21.50;98.90;;;;;;4593472;19;19934;-25
2023/06/07 03:14:14;;;;;;;;;;;21.50;98.90;;;;;;4593648;19;19974;-24
2023/06/07 03:15:45;;;;;;;;;;;21.60;99.00;;;;;;4594118;19;19914;-28
2023/06/07 03:17:17;;;;;;;;;;;21.50;98.90;;;;;;4594456;19;20321;-30
2023/06/07 03:18:49;;;;;;;;;;;21.60;99.00;;;;;;4594555;19;19967;-29
2023/06/07 03:20:21;;;;;;;;;;;21.60;99.00;;;;;;4594780;19;20331;-25
2023/06/07 03:21:53;;;;;;;;;;;21.60;99.00;;;;;;4594878;19;19918;-25
2023/06/07 03:23:24;;;;;;;;;;;21.60;99.00;;;;;;4593062;19;19914;-27
2023/06/07 03:24:57;;;;;;;;;;;21.60;99.00;;;;;;4592919;19;19919;-25
2023/06/07 03:26:28;;;;;;;;;;;21.60;99.00;;;;;;4594072;19;19926;-24
2023/06/07 03:27:59;;;;;;;;;;;21.60;99.00;;;;;;4595019;19;19910;-24
2023/06/07 03:29:32;;;;;;;;;;;21.60;99.10;;;;;;4593891;19;19939;-26
2023/06/07 03:31:04;;;;;;;;;;;21.60;99.10;;;;;;4593554;19;20270;-24
2023/06/07 03:32:35;;;;;;;;;;;21.60;99.10;;;;;;4594653;19;19919;-24
2023/06/07 03:34:05;;;;;;;;;;;21.60;99.10;;;;;;4593770;19;19915;-26
2023/06/07 03:35:39;;;;;;;;;;;21.60;99.10;;;;;;4593904;19;19919;-25
2023/06/07 03:37:10;;;;;;;;;;;21.60;99.10;;;;;;4593970;19;20238;-23
2023/06/07 03:38:43;;;;;;;;;;;21.60;99.10;;;;;;4594785;19;19931;-25
2023/06/07 03:40:15;;;;;;;;;;;21.60;99.40;;;;;;4593691;19;20321;-24
2023/06/07 03:41:46;;;;;;;;;;;21.70;99.20;;;;;;4594090;19;20294;-27
2023/06/07 03:43:17;;;;;;;;;;;21.60;99.20;;;;;;4593052;19;20249;-26
2023/06/07 03:44:48;;;;;;;;;;;21.60;99.20;;;;;;4593106;19;19927;-26
2023/06/07 03:46:19;;;;;;;;;;;21.70;99.40;;;;;;4593787;19;19910;-25
2023/06/07 03:47:53;;;;;;;;;;;21.70;99.40;;;;;;4593681;19;20249;-25
2023/06/07 03:49:25;;;;;;;;;;;21.80;99.50;;;;;;4594090;19;19923;-26
2023/06/07 03:50:56;;;;;;;;;;;21.90;99.50;;;;;;4594485;19;19914;-25
2023/06/07 03:52:26;;;;;;;;;;;22.00;99.30;;;;;;4593714;19;19914;-26
2023/06/07 03:53:58;;;;;;;;;;;22.10;99.50;;;;;;4593933;19;19994;-30
2023/06/07 03:55:29;;;;;;;;;;;22.20;99.10;;;;;;4593870;19;19910;-25
2023/06/07 03:57:00;;;;;;;;;;;22.30;98.90;;;;;;4592458;19;19986;-28
2023/06/07 03:58:32;;;;;;;;;;;22.40;98.90;;;;;;4593503;19;19974;-25
2023/06/07 04:00:11;;;;;;;;;;;22.50;98.80;;;;;;4592871;19;19919;-26
2023/06/07 04:01:42;;;;;;;;;;;22.50;98.70;;;;;;4593922;19;19918;-27
2023/06/07 04:03:13;;;;;;;;;;;22.60;98.60;;;;;;4592358;19;19914;-25
2023/06/07 04:04:44;;;;;;;;;;;22.60;98.60;;;;;;4593352;19;19982;-25
2023/06/07 04:06:18;;;;;;;;;;;22.70;98.60;;;;;;4593228;19;20237;-25
2023/06/07 04:07:49;;;;;;;;;;;22.70;98.50;;;;;;4593438;19;19919;-24
2023/06/07 04:09:20;;;;;;;;;;;22.70;98.50;;;;;;4591930;19;20329;-26
2023/06/07 04:10:52;;;;;;;;;;;22.70;98.60;;;;;;4591832;19;20000;-24
2023/06/07 04:12:23;;;;;;;;;;;22.70;98.80;;;;;;4592500;19;19925;-26
2023/06/07 04:13:54;;;;;;;;;;;22.80;98.60;;;;;;4594046;19;20314;-29
2023/06/07 04:15:25;;;;;;;;;;;22.80;98.60;;;;;;4593167;19;19940;-27
2023/06/07 04:16:57;;;;;;;;;;;22.80;98.70;;;;;;4593362;19;19918;-23
2023/06/07 04:18:28;;;;;;;;;;;22.80;98.70;;;;;;4593611;19;19927;-24
2023/06/07 04:19:59;;;;;;;;;;;22.70;98.70;;;;;;4593714;19;19928;-24
2023/06/07 04:21:30;;;;;;;;;;;22.80;98.80;;;;;;4592782;19;20369;-23
2023/06/07 04:23:01;;;;;;;;;;;22.80;98.70;;;;;;4591512;19;19920;-24
2023/06/07 04:24:32;;;;;;;;;;;22.80;98.90;;;;;;4592373;19;19947;-26
2023/06/07 04:26:06;;;;;;;;;;;22.80;98.80;;;;;;4592420;19;20293;-24
2023/06/07 04:27:38;;;;;;;;;;;22.80;98.90;;;;;;4591318;19;19926;-26
2023/06/07 04:29:09;;;;;;;;;;;22.80;99.00;;;;;;4590770;19;19933;-25
2023/06/07 04:30:42;;;;;;;;;;;22.80;99.00;;;;;;4591210;19;19926;-23
2023/06/07 04:32:13;;;;;;;;;;;22.80;99.10;;;;;;4590938;19;19933;-25
2023/06/07 04:33:45;;;;;;;;;;;22.80;99.30;;;;;;4592850;19;19922;-25
2023/06/07 04:35:19;;;;;;;;;;;22.90;99.50;;;;;;4593322;19;19937;-24
2023/06/07 04:36:50;;;;;;;;;;;22.90;99.50;;;;;;4592856;19;19926;-24
2023/06/07 04:38:21;;;;;;;;;;;23.00;99.70;;;;;;4593117;19;19947;-25
2023/06/07 04:39:52;;;;;;;;;;;23.10;99.70;;;;;;4592461;19;20369;-24
2023/06/07 04:41:30;;;;;;;;;;;23.30;99.70;;;;;;4592506;19;19922;-24
2023/06/07 04:43:07;;;;;;;;;;;23.40;99.70;;;;;;4591944;19;19914;-24
2023/06/07 04:44:38;;;;;;;;;;;23.50;99.60;;;;;;4591632;19;19926;-24
2023/06/07 04:46:10;;;;;;;;;;;23.60;99.60;;;;;;4593457;19;19947;-28
2023/06/07 04:47:45;;;;;;;;;;;23.70;99.70;;;;;;4592544;19;19943;-24
2023/06/07 04:49:17;;;;;;;;;;;23.80;99.70;;;;;;4593221;19;19922;-24
2023/06/07 04:50:50;;;;;;;;;;;23.90;99.70;;;;;;4592330;19;19936;-25
2023/06/07 04:52:21;;;;;;;;;;;24.00;99.60;;;;;;4588416;19;20040;-29
2023/06/07 04:54:01;;;;;;;;;;;24.10;99.70;;;;;;4592208;19;19919;-24
2023/06/07 04:55:34;;;;;;;;;;;24.20;99.70;;;;;;4590879;19;19919;-25
2023/06/07 04:57:08;;;;;;;;;;;24.30;99.60;;;;;;4589291;19;20002;-24
2023/06/07 04:58:40;;;;;;;;;;;24.30;99.70;;;;;;4592660;19;19942;-30
2023/06/07 05:00:13;;;;;;;;;;;24.40;99.90;;;;;;4590369;19;19923;-27
2023/06/07 05:01:44;;;;;;;;;;;24.40;99.50;;;;;;4588290;19;19982;-25
2023/06/07 05:03:21;;;;;;;;;;;24.40;99.50;;;;;;4590471;19;19922;-25
2023/06/07 05:04:53;;;;;;;;;;;24.50;99.90;;;;;;4590320;19;19915;-26
2023/06/07 05:06:24;;;;;;;;;;;24.50;99.60;;;;;;4588847;19;19939;-27
2023/06/07 05:07:55;;;;;;;;;;;24.60;99.90;;;;;;4590742;19;20330;-25
2023/06/07 05:09:26;;;;;;;;;;;24.60;99.90;;;;;;4590139;19;19966;-24
2023/06/07 05:10:57;;;;;;;;;;;24.60;99.90;;;;;;4591155;19;19918;-25
2023/06/07 05:12:29;;;;;;;;;;;24.70;99.90;;;;;;4591872;19;19922;-29
2023/06/07 05:14:00;;;;;;;;;;;24.70;99.90;;;;;;4589612;19;19923;-25
2023/06/07 05:15:31;;;;;;;;;;;24.70;99.90;;;;;;4590197;19;19922;-26
2023/06/07 05:17:02;;;;;;;;;;;24.80;99.90;;;;;;4591924;19;20354;-26
2023/06/07 05:18:39;;;;;;;;;;;24.70;99.50;;;;;;4590910;19;19922;-24
2023/06/07 05:20:13;;;;;;;;;;;24.80;99.90;;;;;;4590056;19;19932;-25
2023/06/07 05:21:46;;;;;;;;;;;24.70;99.80;;;;;;4592464;19;19915;-24
2023/06/07 05:23:18;;;;;;;;;;;24.70;99.90;;;;;;4587965;19;19922;-24
2023/06/07 05:24:49;;;;;;;;;;;24.70;99.90;;;;;;4591622;19;19927;-25
2023/06/07 05:26:22;;;;;;;;;;;24.70;99.90;;;;;;4590157;19;19946;-29
2023/06/07 05:27:53;;;;;;;;;;;24.70;99.60;;;;;;4590488;19;19960;-27
2023/06/07 05:29:26;;;;;;;;;;;24.60;99.90;;;;;;4590626;19;19931;-25
2023/06/07 05:30:58;;;;;;;;;;;24.60;99.60;;;;;;4592132;19;19915;-26
2023/06/07 05:32:30;;;;;;;;;;;24.60;99.40;;;;;;4591341;19;20332;-25
2023/06/07 05:34:01;;;;;;;;;;;24.60;99.30;;;;;;4593616;19;20269;-26
2023/06/07 05:35:32;;;;;;;;;;;24.60;99.10;;;;;;4591647;19;19918;-25
2023/06/07 05:37:04;;;;;;;;;;;24.50;98.80;;;;;;4591790;19;20355;-26
2023/06/07 05:38:35;;;;;;;;;;;24.50;98.80;;;;;;4591879;19;19935;-26
2023/06/07 05:40:08;;;;;;;;;;;24.40;98.80;;;;;;4591793;19;19914;-25
2023/06/07 05:41:39;;;;;;;;;;;24.40;98.90;;;;;;4592586;19;19919;-25
2023/06/07 05:43:10;;;;;;;;;;;24.40;99.10;;;;;;4589417;19;20322;-28
2023/06/07 05:44:41;;;;;;;;;;;22.90;97.60;;;;;;4592513;19;19927;-26
2023/06/07 05:46:12;;;;;;;;;;;20.90;99.40;;;;;;4590389;19;19970;-30
2023/06/07 05:47:45;;;;;;;;;;;19.60;99.90;;;;;;4590997;19;19911;-24
2023/06/07 05:49:17;;;;;;;;;;;18.90;99.90;;;;;;4589488;19;19922;-23
2023/06/07 05:50:48;;;;;;;;;;;18.50;99.90;;;;;;4591720;19;20302;-23
2023/06/07 05:52:19;;;;;;;;;;;18.30;99.90;;;;;;4591667;19;19918;-24
2023/06/07 05:53:50;;;;;;;;;;;18.10;99.90;;;;;;4592379;19;19911;-27
2023/06/07 05:55:23;;;;;;;;;;;18.00;99.90;;;;;;4591234;19;19911;-26
2023/06/07 05:56:54;;;;;;;;;;;18.00;99.90;;;;;;4591459;19;20382;-24
2023/06/07 05:58:26;;;;;;;;;;;18.00;99.90;;;;;;4590914;19;19925;-26
2023/06/07 05:59:59;;;;;;;;;;;18.00;99.90;;;;;;4589956;19;19940;-28
2023/06/07 06:01:30;;;;;;;;;;;17.90;99.90;;;;;;4590771;19;19914;-27
2023/06/07 06:03:04;;;;;;;;;;;17.90;99.90;;;;;;4592436;19;19919;-24
2023/06/07 06:04:35;;;;;;;;;;;18.00;99.90;;;;;;4591855;19;19926;-28
2023/06/07 07:40:15;;;;;;;;;;;18.90;99.90;;;;;;4594525;19;20340;-23
2023/06/07 07:41:46;;;;;;;;;;;18.90;99.90;;;;;;4594331;19;19946;-21
2023/06/07 07:43:17;;;;;;;;;;;18.90;99.90;;;;;;4593139;19;19915;-22
2023/06/07 07:44:48;;;;;;;;;;;18.90;99.90;;;;;;4594260;19;19930;-21
2023/06/07 07:46:20;;;;;;;;;;;18.90;99.90;;;;;;4591996;19;19910;-21
2023/06/07 07:50:04;;;;;;;;;;;19.00;99.80;;;;;;4594324;19;19923;-21
2023/06/07 07:51:35;;;;;;;;;;;19.00;99.70;;;;;;4593584;19;20333;-22
2023/06/07 07:53:24;;;;;;;;;;;19.00;99.80;;;;;;4592317;19;19930;-24
2023/06/07 07:55:11;;;;;;;;;;;19.00;99.10;;;;;;4592121;19;19914;-21
2023/06/07 07:56:45;;;;;;;;;;;19.00;99.90;;;;;;4593323;19;19922;-20
2023/06/07 07:58:16;;;;;;;;;;;19.00;98.70;;;;;;4592038;19;19939;-21
2023/06/07 07:59:46;;;;;;;;;;;19.00;99.70;;;;;;4592318;19;20008;-23
2023/06/07 08:01:18;;;;;;;;;;;19.00;99.10;;;;;;4594450;19;19922;-24
2023/06/07 08:02:50;;;;;;;;;;;19.00;98.70;;;;;;4592303;19;19914;-21
2023/06/07 08:04:21;;;;;;;;;;;19.00;99.40;;;;;;4591840;19;19922;-23
2023/06/07 08:05:53;;;;;;;;;;;19.10;99.00;;;;;;4592031;19;19968;-24
2023/06/07 08:07:25;;;;;;;;;;;19.10;98.60;;;;;;4592366;19;19914;-21
2023/06/07 08:08:57;;;;;;;;;;;19.10;98.10;;;;;;4590320;19;19927;-23
2023/06/07 08:10:29;;;;;;;;;;;19.10;98.40;;;;;;4591995;19;19914;-21
2023/06/07 08:12:01;;;;;;;;;;;19.10;97.20;;;;;;4591061;19;19926;-21
2023/06/07 08:13:32;;;;;;;;;;;19.10;96.60;;;;;;4593588;19;19946;-22
2023/06/07 08:15:03;;;;;;;;;;;19.20;97.30;;;;;;4592761;19;19925;-21
2023/06/07 08:16:34;;;;;;;;;;;19.20;96.30;;;;;;4592517;19;19915;-21
2023/06/07 08:18:05;;;;;;;;;;;19.20;96.20;;;;;;4592160;19;20264;-24
2023/06/07 08:19:36;;;;;;;;;;;19.20;96.30;;;;;;4593093;19;20338;-22
2023/06/07 08:23:46;;;;;;;;;;;19.30;96.40;;;;;;4591665;19;19938;-21
2023/06/07 08:25:17;;;;;;;;;;;19.30;95.50;;;;;;4592610;19;19919;-21
2023/06/07 08:26:49;;;;;;;;;;;19.30;95.60;;;;;;4594507;19;20293;-24
2023/06/07 08:28:20;;;;;;;;;;;19.30;95.70;;;;;;4593239;19;19922;-21
2023/06/07 08:29:51;;;;;;;;;;;19.40;95.50;;;;;;4592076;19;19918;-21
2023/06/07 08:33:12;;;;;;;;;;;19.40;95.10;;;;;;4591849;19;19922;-21
2023/06/07 08:34:45;;;;;;;;;;;19.40;95.10;;;;;;4592812;19;19923;-22
2023/06/07 08:36:16;;;;;;;;;;;19.40;95.60;;;;;;4592113;19;19915;-22
2023/06/07 08:37:46;;;;;;;;;;;19.40;95.90;;;;;;4592688;19;19923;-23
2023/06/07 08:39:18;;;;;;;;;;;19.40;94.90;;;;;;4594994;19;19915;-22
2023/06/07 08:40:53;;;;;;;;;;;19.40;94.80;;;;;;4592650;19;19921;-21
2023/06/07 08:42:25;;;;;;;;;;;19.40;94.40;;;;;;4590062;19;19923;-22
2023/06/07 08:43:56;;;;;;;;;;;19.50;94.70;;;;;;4591650;19;19942;-21
2023/06/07 08:45:27;;;;;;;;;;;19.50;94.20;;;;;;4593982;19;19939;-24
2023/06/07 08:47:00;;;;;;;;;;;19.50;93.80;;;;;;4591884;19;19923;-23
2023/06/07 08:53:19;;;;;;;;;;;19.50;94.20;;;;;;4592007;19;19925;-23
2023/06/07 08:54:51;;;;;;;;;;;19.50;94.20;;;;;;4593376;19;19921;-22
2023/06/07 08:56:24;;;;;;;;;;;19.50;95.10;;;;;;4589451;19;19944;-22
2023/06/07 08:57:55;;;;;;;;;;;19.60;94.70;;;;;;4592341;19;19935;-21
2023/06/07 08:59:27;;;;;;;;;;;19.60;94.30;;;;;;4593973;19;19951;-22
2023/06/07 09:00:59;;;;;;;;;;;19.60;94.10;;;;;;4591889;19;19948;-21
2023/06/07 09:02:30;;;;;;;;;;;19.60;93.60;;;;;;4592259;19;19919;-22
2023/06/07 09:04:01;;;;;;;;;;;19.70;94.00;;;;;;4589666;19;19911;-22
2023/06/07 09:05:34;;;;;;;;;;;19.70;93.80;;;;;;4592917;19;19922;-21
2023/06/07 09:07:06;;;;;;;;;;;19.70;93.80;;;;;;4592199;19;20264;-22
2023/06/07 09:18:01;;;;;;;;;;;19.80;94.00;;;;;;4593026;19;19914;-24
2023/06/07 09:19:35;;;;;;;;;;;19.80;95.40;;;;;;4590689;19;19967;-23
2023/06/07 09:21:25;;;;;;;;;;;19.80;95.10;;;;;;4590226;19;20337;-24
2023/06/07 09:23:32;;;;;;;;;;;19.80;95.20;;;;;;4587297;19;19932;-22
2023/06/07 09:25:10;;;;;;;;;;;19.90;94.70;;;;;;4588656;19;19923;-22
2023/06/07 09:26:41;;;;;;;;;;;19.90;94.70;;;;;;4591563;19;19943;-23
2023/06/07 09:28:13;;;;;;;;;;;19.90;94.90;;;;;;4589008;19;19919;-24
2023/06/07 09:29:44;;;;;;;;;;;19.90;94.50;;;;;;4589442;19;19923;-21
2023/06/07 09:31:29;;;;;;;;;;;19.90;94.60;;;;;;4589317;19;20812;-22
2023/06/07 09:33:00;;;;;;;;;;;19.90;94.40;;;;;;4588965;19;19915;-23
2023/06/07 09:34:35;;;;;;;;;;;19.90;95.30;;;;;;4588934;19;19930;-21
2023/06/07 09:36:25;;;;;;;;;;;19.90;94.90;;;;;;4588761;19;19931;-22
2023/06/07 09:37:59;;;;;;;;;;;19.90;94.50;;;;;;4588349;19;20400;-22
2023/06/07 09:39:32;;;;;;;;;;;19.90;95.00;;;;;;4588340;19;20278;-22
2023/06/07 09:41:37;;;;;;;;;;;19.90;94.60;;;;;;4588998;19;19930;-22
2023/06/07 09:43:08;;;;;;;;;;;19.90;94.50;;;;;;4587699;19;19922;-23
2023/06/07 09:44:55;;;;;;;;;;;19.90;93.50;;;;;;4588559;19;19918;-23
2023/06/07 09:47:00;;;;;;;;;;;19.90;93.80;;;;;;4588141;19;19919;-21
2023/06/07 09:48:42;;;;;;;;;;;19.90;94.10;;;;;;4588194;19;19911;-23
2023/06/07 09:52:43;;;;;;;;;;;19.90;94.60;;;;;;4587429;19;19935;-21
2023/06/07 09:54:16;;;;;;;;;;;19.90;94.20;;;;;;4588432;19;19926;-21
2023/06/07 09:56:27;;;;;;;;;;;19.90;94.20;;;;;;4589273;19;19919;-21
2023/06/07 09:57:58;;;;;;;;;;;19.90;93.80;;;;;;4587381;19;20324;-21
2023/06/07 10:00:15;;;;;;;;;;;19.90;92.80;;;;;;4587612;19;20016;-21
2023/06/07 10:02:10;;;;;;;;;;;19.90;93.30;;;;;;4587688;19;19919;-23
2023/06/07 10:03:46;;;;;;;;;;;20.00;93.30;;;;;;4586995;19;19923;-24
2023/06/07 10:07:49;;;;;;;;;;;19.90;94.10;;;;;;4587913;19;19914;-21
2023/06/07 10:10:07;;;;;;;;;;;19.90;94.00;;;;;;4587783;19;19911;-24
2023/06/07 10:11:57;;;;;;;;;;;20.00;93.80;;;;;;4586805;19;20261;-21
2023/06/07 10:13:34;;;;;;;;;;;20.00;94.20;;;;;;4587406;19;19922;-22
2023/06/07 10:17:58;;;;;;;;;;;20.00;93.80;;;;;;4587309;19;19907;-22
2023/06/07 10:19:57;;;;;;;;;;;20.00;93.60;;;;;;4588006;19;19919;-22
2023/06/07 10:22:29;;;;;;;;;;;20.00;93.80;;;;;;4587151;19;20059;-21
2023/06/07 10:24:22;;;;;;;;;;;20.00;93.90;;;;;;4585999;19;19934;-21
2023/06/07 10:26:20;;;;;;;;;;;20.00;93.20;;;;;;4587195;19;19922;-24
2023/06/07 10:28:09;;;;;;;;;;;20.00;94.10;;;;;;4587868;19;19923;-22
2023/06/07 10:31:53;;;;;;;;;;;20.00;93.00;;;;;;4587538;19;19944;-24
2023/06/07 10:33:25;;;;;;;;;;;20.00;93.90;;;;;;4588177;19;20267;-22
2023/06/07 10:35:15;;;;;;;;;;;20.00;93.80;;;;;;4589162;19;19936;-21
2023/06/07 10:36:47;;;;;;;;;;;20.00;93.00;;;;;;4587845;19;19922;-23
2023/06/07 10:38:18;;;;;;;;;;;20.00;93.10;;;;;;4588186;19;19978;-21
2023/06/07 10:39:49;;;;;;;;;;;20.00;93.30;;;;;;4587226;19;19923;-21
2023/06/07 10:41:21;;;;;;;;;;;20.00;93.30;;;;;;4588120;19;19957;-24
2023/06/07 10:42:52;;;;;;;;;;;20.10;93.30;;;;;;4587752;19;19966;-21
2023/06/07 10:44:24;;;;;;;;;;;20.10;93.40;;;;;;4588286;19;19955;-21
2023/06/07 10:46:14;;;;;;;;;;;20.10;93.30;;;;;;4588306;19;19932;-22
2023/06/07 10:48:22;;;;;;;;;;;20.10;93.50;;;;;;4587433;19;20297;-25
2023/06/07 10:49:56;;;;;;;;;;;20.10;93.50;;;;;;4588178;19;20013;-21
2023/06/07 10:51:55;;;;;;;;;;;20.10;93.30;;;;;;4587253;19;19982;-22
2023/06/07 10:53:48;;;;;;;;;;;20.10;93.60;;;;;;4586347;19;19911;-23
2023/06/07 10:55:53;;;;;;;;;;;20.10;92.50;;;;;;4591872;19;19942;-22
2023/06/07 11:02:36;;;;;;;;;;;20.20;93.70;;;;;;4594295;19;19962;-21
2023/06/07 11:04:45;;;;;;;;;;;20.20;93.70;;;;;;4591960;19;19922;-23
2023/06/07 11:06:16;;;;;;;;;;;20.20;93.60;;;;;;4592487;19;19915;-21
2023/06/07 11:07:51;;;;;;;;;;;20.20;92.90;;;;;;4593552;19;20297;-23
2023/06/07 11:09:25;;;;;;;;;;;20.20;93.10;;;;;;4594740;19;19986;-21
2023/06/07 11:13:41;;;;;;;;;;;20.20;93.30;;;;;;4592777;19;19907;-22
2023/06/07 11:29:43;;;;;;;;;;;20.30;93.00;;;;;;4594315;19;19915;-23
2023/06/07 11:33:24;;;;;;;;;;;20.30;93.20;;;;;;4592802;19;20297;-20
2023/06/07 11:45:31;;;;;;;;;;;20.40;92.40;;;;;;4586066;19;19919;-22
2023/06/07 11:47:05;;;;;;;;;;;20.30;92.30;;;;;;4591157;19;19943;-23